Time;durP1;ratioP1;P1;durP2;ratioP2;P2;SDS_P1;SDS_P2;PMS_P1;PMS_P2;Temp;Humidity;BMP_temperature;BMP_pressure;BME280_temperature;BME280_humidity;BME280_pressure;Samples;Min_cycle;Max_cycle;Signal;HPM_P1;HPM_P2
2022/10/13 00:01:16;;;;;;;11.95;6.63;;;15.10;99.90;;;;;;10056799;28;20402;-55
2022/10/13 00:06:09;;;;;;;9.30;5.45;;;15.00;99.90;;;;;;10056346;28;20052;-49
2022/10/13 00:10:59;;;;;;;10.35;5.95;;;14.90;99.90;;;;;;10057435;28;20392;-52
2022/10/13 00:15:50;;;;;;;11.05;5.88;;;14.90;99.90;;;;;;10057309;28;20033;-52
2022/10/13 00:20:47;;;;;;;10.25;6.20;;;14.80;99.90;;;;;;10059720;28;20121;-55
2022/10/13 00:25:42;;;;;;;13.25;5.63;;;14.70;99.90;;;;;;10057980;28;20445;-54
2022/10/13 00:30:34;;;;;;;16.50;7.32;;;14.70;99.90;;;;;;10052723;28;20045;-52
2022/10/13 00:35:25;;;;;;;11.35;5.47;;;14.70;99.90;;;;;;10056119;28;20037;-52
2022/10/13 00:40:16;;;;;;;10.18;5.97;;;14.70;99.90;;;;;;10062290;28;20103;-49
2022/10/13 00:45:18;;;;;;;11.27;6.28;;;14.70;99.90;;;;;;10055963;28;20495;-50
2022/10/13 00:50:13;;;;;;;13.18;6.95;;;14.70;99.90;;;;;;10067731;28;20045;-54
2022/10/13 00:55:06;;;;;;;12.02;5.95;;;14.60;99.90;;;;;;10053132;28;20388;-51
2022/10/13 00:59:59;;;;;;;13.57;6.97;;;14.50;99.90;;;;;;10057214;28;20036;-55
2022/10/13 01:04:50;;;;;;;13.57;6.28;;;14.50;99.90;;;;;;10052495;28;20028;-55
2022/10/13 01:09:41;;;;;;;12.85;5.75;;;14.50;99.90;;;;;;10050751;28;20045;-53
2022/10/13 01:14:35;;;;;;;10.30;6.63;;;14.40;99.90;;;;;;10052604;28;20035;-55
2022/10/13 01:19:53;;;;;;;17.45;7.53;;;14.40;99.90;;;;;;10053339;28;20415;-52
2022/10/13 01:24:58;;;;;;;15.32;7.43;;;14.40;99.90;;;;;;10051321;28;20094;-53
2022/10/13 01:30:05;;;;;;;14.10;7.05;;;14.40;99.90;;;;;;10051630;28;20037;-49
2022/10/13 01:35:14;;;;;;;13.90;7.20;;;14.30;99.90;;;;;;10051729;28;20086;-50
2022/10/13 01:40:38;;;;;;;11.70;7.38;;;14.30;99.90;;;;;;10053970;28;20050;-56
2022/10/13 01:45:35;;;;;;;11.73;6.80;;;14.20;99.90;;;;;;10055833;28;20021;-55
2022/10/13 01:50:27;;;;;;;16.33;6.72;;;14.10;99.90;;;;;;10055291;28;20060;-54
2022/10/13 01:55:18;;;;;;;10.38;5.63;;;14.20;99.90;;;;;;10055543;28;20030;-63
2022/10/13 02:00:13;;;;;;;8.52;4.88;;;14.10;99.90;;;;;;10059115;28;20029;-63
2022/10/13 02:05:32;;;;;;;9.48;5.30;;;14.00;99.90;;;;;;10055370;28;20025;-60
2022/10/13 02:10:32;;;;;;;10.25;5.55;;;13.80;99.90;;;;;;10047520;28;20105;-54
2022/10/13 02:15:31;;;;;;;12.75;5.85;;;13.80;99.90;;;;;;10052777;28;20024;-55
2022/10/13 02:20:22;;;;;;;8.80;4.90;;;13.80;99.90;;;;;;10051547;28;20480;-55
2022/10/13 02:25:13;;;;;;;10.30;5.07;;;14.00;99.90;;;;;;10066215;28;20042;-56
2022/10/13 02:30:04;;;;;;;10.30;5.38;;;14.00;99.90;;;;;;10051137;28;20029;-55
2022/10/13 02:34:55;;;;;;;10.80;5.80;;;14.00;99.90;;;;;;10050686;28;20026;-53
2022/10/13 02:39:46;;;;;;;9.18;4.97;;;14.00;99.90;;;;;;10050847;28;20057;-57
2022/10/13 02:44:38;;;;;;;10.65;5.75;;;13.90;99.90;;;;;;10050842;28;20511;-59
2022/10/13 02:49:28;;;;;;;9.35;4.78;;;13.90;99.90;;;;;;10050091;28;20466;-52
2022/10/13 02:54:19;;;;;;;8.48;5.05;;;13.90;99.90;;;;;;10049974;28;20041;-58
2022/10/13 02:59:10;;;;;;;9.18;4.68;;;13.90;99.90;;;;;;10050446;28;20021;-59
2022/10/13 03:04:01;;;;;;;7.95;4.80;;;13.80;99.90;;;;;;10047826;28;20038;-53
2022/10/13 03:08:52;;;;;;;7.25;4.40;;;13.80;99.90;;;;;;10048922;28;20033;-54
2022/10/13 03:13:43;;;;;;;8.32;5.05;;;13.80;99.90;;;;;;10053953;28;20025;-63
2022/10/13 03:18:34;;;;;;;14.15;5.38;;;13.80;99.90;;;;;;10061741;28;20033;-62
2022/10/13 03:23:25;;;;;;;11.00;5.95;;;13.90;99.90;;;;;;10060746;28;20116;-61
2022/10/13 03:28:15;;;;;;;10.05;5.00;;;13.90;99.90;;;;;;10061892;28;20046;-57
2022/10/13 03:33:06;;;;;;;9.48;4.72;;;13.90;99.90;;;;;;10060534;28;20018;-59
2022/10/13 03:37:57;;;;;;;8.52;5.82;;;14.00;99.90;;;;;;10067203;28;20045;-56
2022/10/13 03:42:48;;;;;;;9.15;6.03;;;13.90;99.90;;;;;;10059240;28;20132;-53
2022/10/13 03:47:38;;;;;;;10.95;5.18;;;13.80;99.90;;;;;;10056823;28;20534;-55
2022/10/13 03:52:29;;;;;;;11.40;5.53;;;13.80;99.90;;;;;;10055918;28;20047;-63
2022/10/13 03:57:19;;;;;;;10.70;6.07;;;13.90;99.90;;;;;;10055203;28;20068;-52
2022/10/13 04:02:10;;;;;;;15.73;6.32;;;13.90;99.90;;;;;;10055584;28;20112;-54
2022/10/13 04:07:01;;;;;;;13.55;6.82;;;13.80;99.90;;;;;;10055656;28;20448;-57
2022/10/13 04:11:52;;;;;;;11.55;5.38;;;13.70;99.90;;;;;;10048169;28;20750;-64
2022/10/13 04:16:42;;;;;;;14.75;7.05;;;13.60;99.90;;;;;;10047785;28;20297;-65
2022/10/13 04:21:34;;;;;;;10.05;6.57;;;13.60;99.90;;;;;;10052387;28;20172;-54
2022/10/13 04:26:27;;;;;;;11.05;6.20;;;13.60;99.90;;;;;;10055344;28;20036;-58
2022/10/13 04:31:20;;;;;;;9.10;5.85;;;13.60;99.90;;;;;;10055251;28;20063;-56
2022/10/13 04:36:12;;;;;;;10.85;5.78;;;13.60;99.90;;;;;;10053161;28;20060;-61
2022/10/13 04:41:04;;;;;;;12.63;6.07;;;13.50;99.90;;;;;;10055636;28;20523;-60
2022/10/13 04:46:07;;;;;;;11.05;6.00;;;13.40;99.90;;;;;;10058764;28;20053;-60
2022/10/13 04:51:03;;;;;;;12.82;5.80;;;13.40;99.90;;;;;;10057332;28;20037;-65
2022/10/13 04:56:05;;;;;;;9.80;5.55;;;13.40;99.90;;;;;;10058818;28;20037;-55
2022/10/13 05:00:56;;;;;;;10.02;6.55;;;13.20;99.90;;;;;;10058418;28;20029;-54
2022/10/13 05:05:47;;;;;;;12.02;5.07;;;13.10;99.90;;;;;;10055863;28;20021;-58
2022/10/13 05:10:38;;;;;;;13.52;6.20;;;13.10;99.90;;;;;;10057173;28;20120;-53
2022/10/13 05:15:28;;;;;;;8.40;5.32;;;13.10;99.90;;;;;;10056920;28;20025;-62
2022/10/13 05:20:19;;;;;;;10.38;4.95;;;13.10;99.90;;;;;;10053468;28;20120;-58
2022/10/13 05:25:09;;;;;;;11.30;5.45;;;13.10;99.90;;;;;;10052867;28;20760;-67
2022/10/13 05:30:00;;;;;;;10.70;5.38;;;13.00;99.90;;;;;;10053116;28;20057;-62
2022/10/13 05:34:51;;;;;;;10.00;6.70;;;13.10;99.90;;;;;;10049824;28;20037;-64
2022/10/13 05:39:42;;;;;;;11.55;6.65;;;13.10;99.90;;;;;;10050963;28;20187;-60
2022/10/13 05:44:35;;;;;;;11.77;5.88;;;13.10;99.90;;;;;;10051825;28;20044;-62
2022/10/13 05:49:25;;;;;;;11.15;6.20;;;13.20;99.90;;;;;;10052527;28;20049;-62
2022/10/13 05:54:24;;;;;;;13.48;7.15;;;13.20;99.90;;;;;;10052514;28;20037;-54
2022/10/13 05:59:18;;;;;;;11.30;7.07;;;13.10;99.90;;;;;;10052322;28;20036;-54
2022/10/13 06:04:34;;;;;;;13.85;6.68;;;13.10;99.90;;;;;;10051638;28;20033;-54
2022/10/13 06:09:33;;;;;;;15.48;7.88;;;13.20;99.90;;;;;;10052064;28;20543;-54
2022/10/13 06:14:23;;;;;;;18.77;8.10;;;13.20;99.90;;;;;;10055326;28;20044;-50
2022/10/13 06:19:14;;;;;;;16.80;7.55;;;13.10;99.90;;;;;;10054522;28;20425;-53
2022/10/13 06:24:05;;;;;;;21.23;8.25;;;13.00;99.90;;;;;;10055651;28;20041;-53
2022/10/13 06:28:56;;;;;;;14.75;8.13;;;13.10;99.90;;;;;;10056645;28;20037;-50
2022/10/13 06:33:46;;;;;;;13.48;7.43;;;13.20;99.90;;;;;;10055325;28;20369;-55
2022/10/13 06:38:37;;;;;;;11.98;7.20;;;13.40;99.90;;;;;;10054938;28;20131;-54
2022/10/13 06:43:28;;;;;;;12.93;7.65;;;13.60;99.90;;;;;;10052817;28;20029;-51
2022/10/13 06:48:19;;;;;;;16.35;8.30;;;13.70;99.90;;;;;;10054234;28;20103;-55
2022/10/13 06:53:09;;;;;;;14.35;7.45;;;13.80;99.90;;;;;;10058681;28;20034;-52
2022/10/13 06:58:00;;;;;;;12.52;6.70;;;13.80;99.90;;;;;;10058420;28;20030;-59
2022/10/13 07:02:51;;;;;;;11.13;6.93;;;13.70;99.90;;;;;;10057308;28;20040;-55
2022/10/13 07:07:42;;;;;;;12.25;6.57;;;13.70;99.90;;;;;;10058654;28;20045;-49
2022/10/13 07:12:32;;;;;;;14.25;6.60;;;13.90;99.90;;;;;;10055162;28;20048;-48
2022/10/13 07:17:23;;;;;;;13.15;6.38;;;14.00;99.90;;;;;;10058253;28;20503;-48
2022/10/13 07:22:14;;;;;;;11.73;6.28;;;14.00;99.90;;;;;;10057467;28;20033;-53
2022/10/13 07:27:05;;;;;;;13.05;6.68;;;14.10;99.90;;;;;;10056788;28;20135;-56
2022/10/13 07:31:55;;;;;;;9.63;6.20;;;14.20;99.90;;;;;;10055132;28;20243;-53
2022/10/13 07:36:46;;;;;;;9.55;6.13;;;14.30;99.90;;;;;;10055905;28;20505;-59
2022/10/13 07:41:37;;;;;;;7.57;5.90;;;14.30;99.90;;;;;;10056886;28;20033;-60
2022/10/13 07:46:27;;;;;;;9.43;6.43;;;14.40;99.90;;;;;;10060777;28;20403;-61
2022/10/13 07:51:18;;;;;;;9.38;5.50;;;14.50;99.90;;;;;;10059166;28;20419;-55
2022/10/13 07:56:11;;;;;;;11.95;6.07;;;14.40;99.90;;;;;;10060604;28;20035;-54
2022/10/13 08:01:03;;;;;;;11.15;6.88;;;14.50;99.90;;;;;;10059087;28;20492;-52
2022/10/13 08:05:54;;;;;;;13.93;5.85;;;14.50;99.90;;;;;;10060622;28;20018;-53
2022/10/13 08:10:45;;;;;;;11.05;5.57;;;14.70;99.90;;;;;;10059759;28;20435;-54
2022/10/13 08:15:40;;;;;;;12.45;6.63;;;14.80;99.90;;;;;;10057025;28;20155;-56
2022/10/13 08:20:30;;;;;;;15.27;7.13;;;15.00;99.90;;;;;;10055081;28;20029;-55
2022/10/13 08:25:21;;;;;;;16.33;7.43;;;15.20;99.90;;;;;;10054406;28;20396;-53
2022/10/13 08:30:12;;;;;;;12.27;8.50;;;15.30;99.90;;;;;;10050977;28;20032;-56
2022/10/13 08:35:03;;;;;;;14.88;8.68;;;15.40;99.90;;;;;;10051847;28;20026;-54
2022/10/13 08:39:56;;;;;;;15.07;6.60;;;15.60;99.90;;;;;;10051981;28;20056;-54
2022/10/13 08:45:01;;;;;;;13.05;7.22;;;15.60;99.90;;;;;;10053448;28;20083;-54
2022/10/13 08:49:56;;;;;;;14.48;7.38;;;15.80;99.90;;;;;;10050491;28;20447;-53
2022/10/13 08:54:47;;;;;;;12.57;7.13;;;15.90;99.90;;;;;;10052373;28;20025;-55
2022/10/13 08:59:38;;;;;;;14.05;8.18;;;15.90;99.90;;;;;;10047895;28;20385;-51
2022/10/13 09:04:35;;;;;;;12.15;7.45;;;16.10;99.90;;;;;;10053289;28;20137;-53
2022/10/13 09:09:25;;;;;;;13.68;7.43;;;16.20;99.90;;;;;;10052677;28;20438;-53
2022/10/13 09:14:31;;;;;;;13.65;7.35;;;16.30;99.90;;;;;;10054362;28;20040;-53
2022/10/13 09:19:24;;;;;;;;;;;16.50;99.90;;;;;;10057769;28;20116;-53
2022/10/13 09:24:17;;;;;;;16.33;7.95;;;16.70;99.90;;;;;;10057175;28;19995;-53
2022/10/13 09:29:21;;;;;;;15.82;9.13;;;16.70;99.90;;;;;;10056813;28;20033;-53
2022/10/13 09:34:24;;;;;;;16.70;8.02;;;16.80;99.90;;;;;;10052912;28;20030;-65
2022/10/13 09:39:15;;;;;;;11.95;7.78;;;16.80;99.90;;;;;;10056353;28;20124;-61
2022/10/13 09:44:38;;;;;;;22.55;7.82;;;16.80;99.90;;;;;;10052685;28;20013;-60
2022/10/13 09:49:34;;;;;;;14.07;7.50;;;17.00;99.90;;;;;;10044325;28;20124;-57
2022/10/13 09:54:35;;;;;;;12.70;8.18;;;16.90;99.90;;;;;;10051021;28;20025;-55
2022/10/13 09:59:34;;;;;;;12.63;8.32;;;17.00;99.90;;;;;;10051725;28;20029;-53
2022/10/13 10:04:43;;;;;;;12.80;6.88;;;17.20;99.90;;;;;;10051723;28;20036;-52
2022/10/13 10:09:40;;;;;;;15.40;7.82;;;17.20;99.90;;;;;;10050478;28;20029;-56
2022/10/13 10:14:33;;;;;;;18.23;7.30;;;17.30;99.90;;;;;;10051805;28;20026;-56
2022/10/13 10:19:44;;;;;;;16.27;7.63;;;17.30;99.90;;;;;;10049566;28;20168;-52
2022/10/13 10:25:05;;;;;;;15.40;7.40;;;17.40;99.90;;;;;;10057953;28;20029;-52
2022/10/13 10:30:01;;;;;;;14.95;7.35;;;17.60;99.90;;;;;;10058778;28;20037;-58
2022/10/13 10:35:09;;;;;;;12.00;6.93;;;17.90;99.90;;;;;;10059186;28;20030;-53
2022/10/13 10:40:10;;;;;;;11.65;6.35;;;18.20;99.90;;;;;;10058253;28;20044;-56
2022/10/13 10:45:03;;;;;;;9.63;5.78;;;18.20;99.90;;;;;;10076751;28;20052;-59
2022/10/13 10:50:03;;;;;;;12.20;7.35;;;18.20;99.90;;;;;;10068908;28;20033;-60
2022/10/13 10:55:09;;;;;;;11.73;6.75;;;18.30;99.90;;;;;;10061107;28;20029;-55
2022/10/13 11:00:18;;;;;;;10.35;7.00;;;18.30;99.90;;;;;;10062717;28;20029;-57
2022/10/13 11:05:09;;;;;;;11.60;7.55;;;18.60;99.90;;;;;;10060951;28;20033;-54
2022/10/13 11:10:15;;;;;;;14.90;7.22;;;18.60;99.90;;;;;;10062103;28;20065;-53
2022/10/13 11:15:18;;;;;;;13.57;7.47;;;18.70;99.90;;;;;;10055611;28;20037;-53
2022/10/13 11:20:20;;;;;;;11.63;6.93;;;18.80;99.90;;;;;;10054296;28;20105;-52
2022/10/13 11:25:33;;;;;;;17.05;8.13;;;19.00;99.90;;;;;;10056408;28;20033;-60
2022/10/13 11:30:52;;;;;;;11.10;6.72;;;18.80;99.90;;;;;;10056779;28;20029;-51
2022/10/13 11:35:43;;;;;;;13.35;7.28;;;18.70;99.90;;;;;;10053389;28;20112;-60
2022/10/13 11:40:55;;;;;;;11.88;7.07;;;18.80;99.90;;;;;;10055248;28;20458;-59
2022/10/13 11:45:50;;;;;;;12.93;7.32;;;18.80;99.90;;;;;;10055070;28;20038;-60
2022/10/13 11:50:58;;;;;;;;;;;18.70;99.90;;;;;;10055205;28;20033;-57
2022/10/13 11:55:54;;;;;;;11.27;7.50;;;18.50;99.90;;;;;;10055441;28;19909;-52
2022/10/13 12:00:54;;;;;;;13.98;7.50;;;18.50;99.90;;;;;;10048629;28;20460;-52
2022/10/13 12:05:47;;;;;;;12.88;7.38;;;19.10;99.90;;;;;;10054797;28;20028;-50
2022/10/13 12:10:38;;;;;;;12.75;7.13;;;19.40;99.90;;;;;;10028216;28;20033;-49
2022/10/13 12:15:43;;;;;;;14.32;8.35;;;19.40;99.90;;;;;;10065907;28;20017;-52
2022/10/13 12:20:33;;;;;;;8.83;6.17;;;19.10;99.90;;;;;;10050446;28;20112;-51
2022/10/13 12:25:29;;;;;;;14.50;7.03;;;18.90;99.90;;;;;;10058492;28;20351;-54
2022/10/13 12:30:23;;;;;;;13.32;7.22;;;19.10;99.90;;;;;;10059618;28;20033;-56
2022/10/13 12:35:18;;;;;;;11.77;6.72;;;19.00;99.90;;;;;;10059035;28;20091;-54
2022/10/13 12:40:13;;;;;;;14.60;7.80;;;19.20;99.90;;;;;;10073587;28;20044;-53
2022/10/13 12:45:05;;;;;;;17.58;7.97;;;19.20;99.90;;;;;;10054463;28;20075;-50
2022/10/13 12:50:24;;;;;;;8.88;5.95;;;19.10;99.90;;;;;;10054389;28;20144;-54
2022/10/13 12:55:18;;;;;;;15.23;7.78;;;19.20;99.90;;;;;;10051426;28;20063;-50
2022/10/13 13:00:17;;;;;;;10.23;7.00;;;19.20;99.90;;;;;;10053852;28;20036;-54
2022/10/13 13:05:30;;;;;;;12.07;6.22;;;19.20;99.90;;;;;;10052563;28;20197;-51
2022/10/13 13:10:22;;;;;;;16.10;7.22;;;19.10;99.90;;;;;;10053483;28;20052;-53
2022/10/13 13:15:24;;;;;;;12.75;5.70;;;19.10;99.90;;;;;;10053736;28;20025;-56
2022/10/13 13:20:31;;;;;;;11.02;5.68;;;19.10;99.90;;;;;;10052406;28;20056;-54
2022/10/13 13:25:22;;;;;;;11.68;6.60;;;19.10;99.90;;;;;;10052581;28;20080;-56
2022/10/13 13:30:15;;;;;;;14.07;6.10;;;19.00;99.90;;;;;;10052469;28;20446;-55
2022/10/13 13:35:06;;;;;;;10.63;6.30;;;18.90;99.90;;;;;;10052800;28;20060;-57
2022/10/13 13:39:58;;;;;;;10.45;5.60;;;18.90;99.90;;;;;;10051508;28;20107;-58
2022/10/13 13:44:48;;;;;;;9.10;5.10;;;18.80;99.90;;;;;;10069862;28;20557;-60
2022/10/13 13:49:39;;;;;;;10.68;5.10;;;18.80;99.90;;;;;;10056198;28;20033;-57
2022/10/13 13:54:29;;;;;;;9.80;5.28;;;18.80;99.90;;;;;;10056000;28;20059;-55
2022/10/13 13:59:20;;;;;;;9.85;4.97;;;18.80;99.90;;;;;;10055731;28;20496;-58
2022/10/13 14:04:11;;;;;;;9.70;5.00;;;18.80;99.90;;;;;;10055956;28;20029;-64
2022/10/13 14:09:03;;;;;;;6.72;4.32;;;18.70;99.90;;;;;;10055341;28;20029;-58
2022/10/13 14:13:56;;;;;;;10.95;5.05;;;18.70;99.90;;;;;;10054679;28;20059;-49
2022/10/13 14:18:47;;;;;;;9.30;4.72;;;18.70;99.90;;;;;;10052097;28;20033;-51
2022/10/13 14:23:39;;;;;;;9.45;4.18;;;18.70;99.90;;;;;;10050843;28;20382;-63
2022/10/13 14:28:29;;;;;;;7.32;4.28;;;18.70;99.90;;;;;;10050556;28;20042;-54
2022/10/13 14:33:21;;;;;;;7.03;4.05;;;18.60;99.90;;;;;;10050554;28;20112;-55
2022/10/13 14:38:11;;;;;;;8.80;4.65;;;18.60;99.90;;;;;;10051078;28;20049;-54
2022/10/13 14:43:02;;;;;;;5.20;3.38;;;18.60;99.90;;;;;;10050218;28;20017;-61
2022/10/13 14:47:52;;;;;;;5.93;3.13;;;18.50;99.90;;;;;;10050951;28;20065;-56
2022/10/13 14:52:43;;;;;;;5.03;3.28;;;18.50;99.90;;;;;;10050777;28;20030;-53
2022/10/13 14:57:34;;;;;;;9.52;3.30;;;18.40;99.90;;;;;;10051058;28;20025;-56
2022/10/13 15:02:27;;;;;;;6.57;2.60;;;18.30;99.90;;;;;;10050722;28;20037;-67
2022/10/13 15:07:18;;;;;;;7.55;3.00;;;18.40;99.90;;;;;;10050713;28;20029;-67
2022/10/13 15:12:09;;;;;;;3.22;2.45;;;18.30;99.90;;;;;;10056667;28;20041;-65
2022/10/13 15:16:59;;;;;;;4.30;3.05;;;18.20;99.90;;;;;;10061236;28;20025;-67
2022/10/13 15:21:50;;;;;;;7.15;2.58;;;18.20;99.90;;;;;;10061324;28;20539;-51
2022/10/13 15:26:41;;;;;;;4.32;2.30;;;18.10;99.90;;;;;;10061716;28;20029;-61
2022/10/13 15:31:32;;;;;;;6.20;3.05;;;18.10;99.90;;;;;;10058612;28;20052;-62
2022/10/13 15:36:23;;;;;;;5.65;2.90;;;18.10;99.90;;;;;;10060979;28;20122;-59
2022/10/13 15:41:15;;;;;;;8.25;2.65;;;18.10;99.90;;;;;;10059527;28;20459;-54
2022/10/13 15:46:09;;;;;;;5.13;2.78;;;18.00;99.90;;;;;;10057711;28;20369;-65
2022/10/13 15:51:00;;;;;;;6.47;3.07;;;18.00;99.90;;;;;;10055490;28;20120;-53
2022/10/13 15:55:51;;;;;;;4.68;2.83;;;18.00;99.90;;;;;;10055805;28;20104;-61
2022/10/13 16:00:42;;;;;;;5.43;2.92;;;17.90;99.90;;;;;;10055348;28;20045;-58
2022/10/13 16:05:33;;;;;;;6.70;2.97;;;17.90;99.90;;;;;;10055568;28;20055;-57
2022/10/13 16:10:23;;;;;;;6.78;3.20;;;17.80;99.90;;;;;;10054460;28;20150;-57
2022/10/13 16:15:16;;;;;;;5.68;3.15;;;17.80;99.90;;;;;;10055682;28;20034;-54
2022/10/13 16:20:07;;;;;;;9.82;4.78;;;17.80;99.90;;;;;;10055087;28;20124;-55
2022/10/13 16:24:58;;;;;;;12.02;4.90;;;17.80;99.90;;;;;;10051578;28;20030;-55
2022/10/13 16:29:49;;;;;;;7.03;4.57;;;17.70;99.90;;;;;;10050499;28;20116;-55
2022/10/13 16:34:39;;;;;;;7.72;4.47;;;17.60;99.90;;;;;;10054249;28;20044;-53
2022/10/13 16:39:30;;;;;;;8.98;5.20;;;17.60;99.90;;;;;;10053035;28;20041;-52
2022/10/13 16:44:20;;;;;;;15.00;6.03;;;17.60;99.90;;;;;;10051721;28;20037;-52
2022/10/13 16:49:11;;;;;;;6.15;4.45;;;17.50;99.90;;;;;;10055131;28;20056;-49
2022/10/13 16:54:02;;;;;;;12.30;4.50;;;17.50;99.90;;;;;;10054571;28;20033;-57
2022/10/13 16:58:58;;;;;;;7.72;4.65;;;17.50;99.90;;;;;;10054301;28;20537;-51
2022/10/13 17:03:50;;;;;;;7.72;4.20;;;17.50;99.90;;;;;;10058125;28;20057;-58
2022/10/13 17:08:41;;;;;;;8.15;5.22;;;17.50;99.90;;;;;;10058406;28;20045;-50
2022/10/13 17:13:34;;;;;;;8.90;4.93;;;17.50;99.90;;;;;;10056937;28;20025;-52
2022/10/13 17:18:25;;;;;;;10.75;5.07;;;17.50;99.90;;;;;;10053535;28;20029;-55
2022/10/13 17:23:16;;;;;;;8.43;5.03;;;17.40;99.90;;;;;;10052227;28;20044;-54
2022/10/13 17:28:07;;;;;;;7.13;4.43;;;17.40;99.90;;;;;;10053296;28;20033;-53
2022/10/13 17:32:57;;;;;;;12.88;5.28;;;17.40;99.90;;;;;;10052251;28;20643;-51
2022/10/13 17:37:48;;;;;;;8.07;5.57;;;17.40;99.90;;;;;;10051655;28;20045;-54
2022/10/13 17:42:39;;;;;;;10.98;5.32;;;17.40;99.90;;;;;;10053178;28;20045;-51
2022/10/13 17:47:29;;;;;;;12.25;5.15;;;17.30;99.90;;;;;;10046594;28;20021;-57
2022/10/13 17:52:20;;;;;;;16.60;6.38;;;17.30;99.90;;;;;;10055495;28;20045;-57
2022/10/13 17:57:11;;;;;;;10.85;5.80;;;17.30;99.90;;;;;;10051445;28;20471;-55
2022/10/13 18:02:01;;;;;;;11.02;6.07;;;17.30;99.90;;;;;;10052046;28;20024;-55
2022/10/13 18:06:52;;;;;;;13.82;6.75;;;17.30;99.90;;;;;;10051927;28;20112;-58
2022/10/13 18:11:45;;;;;;;8.63;5.25;;;17.20;99.90;;;;;;10051373;28;20473;-62
2022/10/13 18:16:36;;;;;;;10.43;6.18;;;17.20;99.90;;;;;;10051028;28;20021;-57
2022/10/13 18:21:27;;;;;;;8.90;4.85;;;17.10;99.90;;;;;;10058541;28;20045;-52
2022/10/13 18:26:19;;;;;;;12.90;5.50;;;17.00;99.90;;;;;;10055698;28;20554;-56
2022/10/13 18:31:15;;;;;;;9.55;5.35;;;17.00;99.90;;;;;;10051272;28;20034;-55
2022/10/13 18:36:24;;;;;;;9.57;4.65;;;16.90;99.90;;;;;;10058205;28;20499;-55
2022/10/13 18:41:16;;;;;;;8.75;4.75;;;16.90;99.90;;;;;;10048209;28;20053;-55
2022/10/13 18:46:07;;;;;;;7.70;4.20;;;16.90;99.90;;;;;;10056971;28;20211;-53
2022/10/13 18:51:07;;;;;;;7.43;4.78;;;16.90;99.90;;;;;;10057902;28;20041;-56
2022/10/13 18:56:06;;;;;;;10.07;4.40;;;16.90;99.90;;;;;;10060002;28;20503;-59
2022/10/13 19:01:05;;;;;;;9.13;4.35;;;16.90;99.90;;;;;;10056082;28;20449;-58
2022/10/13 19:05:56;;;;;;;10.68;5.05;;;16.90;99.90;;;;;;10057766;28;20116;-58
2022/10/13 19:10:47;;;;;;;7.72;4.45;;;16.90;99.90;;;;;;10058423;28;20112;-58
2022/10/13 19:15:38;;;;;;;8.25;4.35;;;16.90;99.90;;;;;;10056159;28;20030;-59
2022/10/13 19:20:29;;;;;;;10.63;4.38;;;16.80;99.90;;;;;;10056652;28;20021;-62
2022/10/13 19:25:19;;;;;;;7.18;4.05;;;16.80;99.90;;;;;;10055518;28;20392;-59
2022/10/13 19:30:10;;;;;;;8.15;4.45;;;16.80;99.90;;;;;;10056395;28;20045;-63
2022/10/13 19:35:01;;;;;;;7.93;3.95;;;16.80;99.90;;;;;;10057576;28;20013;-60
2022/10/13 19:39:52;;;;;;;9.63;4.32;;;16.80;99.90;;;;;;10050780;28;20046;-61
2022/10/13 19:44:42;;;;;;;6.32;4.95;;;16.80;99.90;;;;;;10041897;28;20044;-59
2022/10/13 19:49:33;;;;;;;5.50;4.22;;;16.90;99.90;;;;;;10059219;28;20103;-63
2022/10/13 19:54:24;;;;;;;7.57;3.45;;;16.90;99.90;;;;;;10058627;28;20399;-64
2022/10/13 19:59:16;;;;;;;7.53;4.00;;;16.90;99.90;;;;;;10057510;28;20095;-63
2022/10/13 20:04:08;;;;;;;11.00;5.13;;;16.90;99.90;;;;;;10060466;28;20545;-58
2022/10/13 20:08:59;;;;;;;9.25;4.28;;;16.90;99.90;;;;;;10060776;28;20041;-57
2022/10/13 20:13:51;;;;;;;9.20;5.18;;;16.90;99.90;;;;;;10057138;28;20037;-57
2022/10/13 20:18:42;;;;;;;8.00;4.15;;;16.90;99.90;;;;;;10052650;28;20025;-56
2022/10/13 20:23:33;;;;;;;9.35;4.22;;;16.90;99.90;;;;;;10056199;28;20407;-56
2022/10/13 20:28:24;;;;;;;9.98;4.63;;;16.80;99.90;;;;;;10056339;28;20503;-59
2022/10/13 20:33:15;;;;;;;8.57;4.90;;;16.80;99.90;;;;;;10054773;28;20033;-56
2022/10/13 20:38:05;;;;;;;6.40;4.15;;;16.70;99.90;;;;;;10055171;28;20620;-56
2022/10/13 20:42:56;;;;;;;6.25;4.13;;;16.60;99.90;;;;;;10058274;28;20056;-55
2022/10/13 20:47:47;;;;;;;8.68;4.05;;;16.50;99.90;;;;;;10054408;28;20392;-60
2022/10/13 20:52:38;;;;;;;9.93;3.47;;;16.40;99.90;;;;;;10050697;28;20084;-63
2022/10/13 20:57:28;;;;;;;5.97;4.05;;;16.30;99.90;;;;;;10055465;28;20472;-54
2022/10/13 21:02:19;;;;;;;5.63;3.83;;;16.30;99.90;;;;;;10053546;28;20030;-56
2022/10/13 21:07:10;;;;;;;6.10;4.53;;;16.20;99.90;;;;;;10054827;28;20036;-57
2022/10/13 21:12:01;;;;;;;8.80;5.30;;;16.10;99.90;;;;;;10053257;28;20038;-54
2022/10/13 21:16:51;;;;;;;10.23;4.70;;;16.10;99.90;;;;;;10051805;28;20078;-55
2022/10/13 21:21:42;;;;;;;11.32;5.10;;;16.00;99.90;;;;;;10057713;28;20083;-52
2022/10/13 21:26:34;;;;;;;10.05;4.82;;;16.10;99.90;;;;;;10058396;28;20407;-56
2022/10/13 21:31:25;;;;;;;10.98;4.85;;;16.10;99.90;;;;;;10056744;28;20171;-55
2022/10/13 21:36:21;;;;;;;10.60;4.88;;;16.20;99.90;;;;;;10057909;28;20033;-58
2022/10/13 21:41:13;;;;;;;12.20;4.72;;;16.20;99.90;;;;;;10054867;28;20057;-57
2022/10/13 21:46:19;;;;;;;9.13;4.60;;;16.10;99.90;;;;;;10052903;28;20137;-59
2022/10/13 21:51:21;;;;;;;9.68;5.35;;;16.10;99.90;;;;;;10050114;28;20040;-62
2022/10/13 21:56:12;;;;;;;10.95;4.85;;;16.20;99.90;;;;;;10050670;28;20116;-56
2022/10/13 22:01:04;;;;;;;18.08;7.05;;;16.10;99.90;;;;;;10051816;28;20117;-56
2022/10/13 22:05:54;;;;;;;11.85;5.38;;;16.10;99.90;;;;;;10052730;28;20072;-55
2022/10/13 22:10:45;;;;;;;9.32;4.80;;;16.10;99.90;;;;;;10051306;28;20029;-59
2022/10/13 22:15:36;;;;;;;7.70;4.75;;;16.20;99.90;;;;;;10052351;28;20041;-51
2022/10/13 22:20:27;;;;;;;7.97;5.82;;;16.10;99.90;;;;;;10056012;28;20021;-51
2022/10/13 22:25:17;;;;;;;7.47;4.30;;;16.10;99.90;;;;;;10059584;28;20022;-53
2022/10/13 22:30:08;;;;;;;8.02;4.57;;;16.10;99.90;;;;;;10058964;28;20041;-53
2022/10/13 22:34:59;;;;;;;7.70;4.57;;;16.00;99.90;;;;;;10060057;28;20087;-54
2022/10/13 22:39:50;;;;;;;7.70;5.30;;;16.00;99.90;;;;;;10058661;28;20099;-53
2022/10/13 22:44:40;;;;;;;6.18;5.00;;;16.00;99.90;;;;;;10059038;28;20039;-54
2022/10/13 22:49:31;;;;;;;10.65;5.00;;;16.10;99.90;;;;;;10063136;28;20037;-50
2022/10/13 22:54:21;;;;;;;8.23;4.75;;;16.10;99.90;;;;;;10063334;28;20021;-53
2022/10/13 22:59:12;;;;;;;9.95;5.15;;;16.10;99.90;;;;;;10062046;28;20029;-52
2022/10/13 23:04:04;;;;;;;11.98;6.72;;;16.10;99.90;;;;;;10065020;28;20044;-64
2022/10/13 23:08:58;;;;;;;9.05;5.25;;;16.10;99.90;;;;;;10062653;28;20466;-55
2022/10/13 23:13:49;;;;;;;8.68;4.65;;;16.10;99.90;;;;;;10061586;28;20026;-54
2022/10/13 23:18:40;;;;;;;7.30;5.68;;;16.00;99.90;;;;;;10058607;28;20587;-54
2022/10/13 23:23:30;;;;;;;9.65;5.10;;;16.10;99.90;;;;;;10056276;28;20033;-56
2022/10/13 23:28:21;;;;;;;7.22;4.82;;;16.10;99.90;;;;;;10057438;28;20040;-55
2022/10/13 23:33:11;;;;;;;9.90;5.57;;;16.10;99.90;;;;;;10059116;28;20033;-55
2022/10/13 23:38:02;;;;;;;9.38;6.07;;;16.00;99.90;;;;;;10055151;28;20052;-59
2022/10/13 23:42:53;;;;;;;8.43;5.20;;;16.00;99.90;;;;;;10056607;28;20037;-59
2022/10/13 23:47:43;;;;;;;8.75;4.95;;;16.10;99.90;;;;;;10057209;28;20442;-54
2022/10/13 23:52:34;;;;;;;11.27;6.05;;;16.00;99.90;;;;;;10056940;28;20444;-61
2022/10/13 23:57:24;;;;;;;9.20;5.13;;;16.00;99.90;;;;;;10056081;28;20057;-61
